Hastings Airport


Codes: GFHA/HGS
Name: Hastings Airport
City: Freetown
Country: Sierra Leone
Elevation: 60 ft.
Wikipedia:

Photos at Hastings Airport


   Photos courtesy of SpottingLog. You can add your own sightings and photos by signing up for a free trial today.



No photos found.

Weather at Hastings Airport


Time (UTC)DescriptionTempratureWindCloud coverageVisibilityPressureHumidity
21-Jun-2024 12:00Light Rain28°C7 mph, SW74%10000m1014hPa77%
21-Jun-2024 15:00Light Rain28°C9 mph, SW76%10000m1013hPa77%
21-Jun-2024 18:00Light Rain28°C7 mph, SW74%10000m1012hPa80%
21-Jun-2024 21:00Light Rain26°C4 mph, SW99%4905m1013hPa88%
22-Jun-2024 00:00Moderate Rain25°C2 mph, S99%10000m1014hPa90%
22-Jun-2024 03:00Moderate Rain25°C4 mph, SW100%10000m1012hPa90%
22-Jun-2024 06:00Overcast Clouds25°C2 mph, SW99%10000m1013hPa91%
22-Jun-2024 09:00Light Rain27°C2 mph, SW98%10000m1014hPa83%
22-Jun-2024 12:00Light Rain28°C7 mph, SW83%10000m1014hPa76%
22-Jun-2024 15:00Moderate Rain28°C7 mph, SW85%10000m1013hPa78%
22-Jun-2024 18:00Light Rain27°C7 mph, SW76%10000m1012hPa81%
22-Jun-2024 21:00Light Rain26°C7 mph, SW100%10000m1014hPa87%
23-Jun-2024 00:00Moderate Rain25°C2 mph, SW99%10000m1014hPa90%
23-Jun-2024 03:00Light Rain25°C2 mph, W72%10000m1012hPa89%
23-Jun-2024 06:00Light Rain25°C2 mph, W86%10000m1013hPa89%
23-Jun-2024 09:00Overcast Clouds27°C2 mph, SW100%10000m1013hPa82%
23-Jun-2024 12:00Light Rain29°C7 mph, SW100%10000m1014hPa74%
23-Jun-2024 15:00Light Rain28°C7 mph, SW100%10000m1012hPa77%
23-Jun-2024 18:00Light Rain27°C7 mph, SW100%10000m1012hPa81%
23-Jun-2024 21:00Light Rain26°C4 mph, SW100%10000m1013hPa86%
24-Jun-2024 00:00Overcast Clouds26°C4 mph, SW100%10000m1014hPa87%
24-Jun-2024 03:00Light Rain25°C4 mph, S91%10000m1012hPa89%
24-Jun-2024 06:00Light Rain25°C2 mph, SW91%10000m1012hPa90%
24-Jun-2024 09:00Light Rain27°C2 mph, S92%10000m1014hPa82%
24-Jun-2024 12:00Light Rain28°C4 mph, S96%10000m1014hPa77%
24-Jun-2024 15:00Light Rain28°C7 mph, SW100%10000m1012hPa77%
24-Jun-2024 18:00Light Rain27°C7 mph, SW100%10000m1011hPa81%
24-Jun-2024 21:00Light Rain26°C7 mph, SW100%10000m1014hPa87%
25-Jun-2024 00:00Light Rain26°C4 mph, SW100%10000m1014hPa88%
25-Jun-2024 03:00Light Rain26°C4 mph, SW98%10000m1012hPa89%
25-Jun-2024 06:00Light Rain26°C4 mph, S92%10000m1013hPa88%
25-Jun-2024 09:00Light Rain27°C2 mph, S97%10000m1014hPa83%
25-Jun-2024 12:00Light Rain28°C4 mph, SW81%10000m1014hPa76%
25-Jun-2024 15:00Light Rain28°C9 mph, SW62%10000m1011hPa76%
25-Jun-2024 18:00Light Rain27°C9 mph, SW77%10000m1011hPa82%
25-Jun-2024 21:00Light Rain26°C7 mph, SW100%10000m1013hPa87%
26-Jun-2024 00:00Light Rain25°C4 mph, SW100%10000m1014hPa89%
26-Jun-2024 03:00Moderate Rain25°C4 mph, W100%10000m1012hPa90%
26-Jun-2024 06:00Moderate Rain25°C2 mph, W100%10000m1013hPa91%
26-Jun-2024 09:00Light Rain26°C4 mph, SW100%10000m1013hPa85%